Bridgeport, Illinois
Current Conditions -  °F | °C
As of 4:35 PM on Monday 22 Dec 2014 (Local Time) from KAJG Reporting Station
Light Rain Light Rain  
Wind Chill: 50°   Ceiling: 2400
Heat Index: 50°   Visibility: 10mi
Dew Point: 45°   Wind: 15mph
Humidity: 82%   Direction: 140°SE
Pressure: 29.66"   Gusts: 21mph
Location:  38.71°N, 87.76°W
Report Text: KAJG 222235Z AUTO 14013G18KT 10SM -RA OVC024 10/07 A2966 RMK AO2 P0001
Loading
Personal Weather Stations






























Interactive Weather Map New forecast layout! Learn more

10-Day Weather Forecast

Advertisements
Track Severe Weather on mobile